Aviation Digital Data Service (ADDS)

Output produced by METARs form (1504 UTC 29 May 2017)
found at http://www.aviationweather.gov/adds/metars/
 
METAR text: KHAE 291455Z AUTO 28004G17KT 7SM SCT110 23/09 A2993 RMK AO2
Conditions at: KHAE (HANNIBAL , MO, US) observed 1455 UTC 29 May 2017
Temperature: 23.0°C (73°F)
Dewpoint: 9.0°C (48°F) [RH = 41%]
Pressure (altimeter): 29.93 inches Hg (1013.6 mb)
Winds: from the W (280 degrees) at 5 MPH (4 knots; 2.1 m/s)
gusting to 20 MPH (17 knots; 8.8 m/s)
Visibility: 7 miles (11 km)
Ceiling: at least 12,000 feet AGL
Clouds: scattered clouds at 11000 feet AGL
Weather: automated observation with no human augmentation;
there may or may not be significant weather present at this time